Time;durP1;ratioP1;P1;durP2;ratioP2;P2;SDS_P1;SDS_P2;PMS_P1;PMS_P2;Temp;Humidity;BMP_temperature;BMP_pressure;BME280_temperature;BME280_humidity;BME280_pressure;Samples;Min_cycle;Max_cycle;Signal;HPM_P1;HPM_P2
2021/12/11 00:01:53;;;;;;;0.50;0.50;;;;;;;;;;4199168;28;20049;-43
2021/12/11 00:03:56;;;;;;;0.50;0.40;;;;;;;;;;4199152;28;20056;-40
2021/12/11 00:06:02;;;;;;;0.50;0.40;;;;;;;;;;4197988;28;20060;-42
2021/12/11 00:08:04;;;;;;;0.38;0.38;;;;;;;;;;4198453;28;20074;-43
2021/12/11 00:10:14;;;;;;;0.40;0.32;;;;;;;;;;4199382;28;20041;-38
2021/12/11 00:12:21;;;;;;;0.55;0.45;;;;;;;;;;4198983;28;20045;-42
2021/12/11 00:14:23;;;;;;;0.77;0.45;;;;;;;;;;4199368;28;20075;-40
2021/12/11 00:16:25;;;;;;;0.40;0.40;;;;;;;;;;4198961;28;20419;-40
2021/12/11 00:18:27;;;;;;;0.73;0.52;;;;;;;;;;4199075;28;20044;-38
2021/12/11 00:20:30;;;;;;;0.52;0.40;;;;;;;;;;4198898;28;20040;-41
2021/12/11 00:22:31;;;;;;;0.40;0.30;;;;;;;;;;4198140;28;20049;-39
2021/12/11 00:24:35;;;;;;;0.50;0.40;;;;;;;;;;4198151;28;20061;-42
2021/12/11 00:26:41;;;;;;;0.60;0.45;;;;;;;;;;4198752;28;20044;-41
2021/12/11 00:28:45;;;;;;;0.52;0.50;;;;;;;;;;4198910;28;20560;-41
2021/12/11 00:30:47;;;;;;;0.40;0.40;;;;;;;;;;4198818;28;20075;-41
2021/12/11 00:32:48;;;;;;;0.32;0.32;;;;;;;;;;4198537;28;20484;-43
2021/12/11 00:34:51;;;;;;;0.60;0.50;;;;;;;;;;4197810;28;20079;-43
2021/12/11 00:37:01;;;;;;;0.40;0.32;;;;;;;;;;4198129;28;20128;-40
2021/12/11 00:39:02;;;;;;;;;;;;;;;;;;4199137;28;20871;-40
2021/12/11 00:41:04;;;;;;;0.50;0.40;;;;;;;;;;4198823;28;19921;-42
2021/12/11 00:43:07;;;;;;;0.40;0.40;;;;;;;;;;4198471;28;20048;-40
2021/12/11 00:45:14;;;;;;;0.70;0.40;;;;;;;;;;4197265;28;20048;-41
2021/12/11 00:47:35;;;;;;;0.93;0.60;;;;;;;;;;4197090;28;20056;-42
2021/12/11 00:49:43;;;;;;;0.50;0.50;;;;;;;;;;4198358;28;20493;-42
2021/12/11 00:51:49;;;;;;;0.30;0.30;;;;;;;;;;4198013;28;20044;-41
2021/12/11 00:53:57;;;;;;;0.60;0.50;;;;;;;;;;4198456;28;20052;-41
2021/12/11 00:56:11;;;;;;;0.47;0.30;;;;;;;;;;4198457;28;20404;-42
2021/12/11 00:58:14;;;;;;;0.60;0.40;;;;;;;;;;4198556;28;20377;-42
2021/12/11 01:00:21;;;;;;;0.35;0.30;;;;;;;;;;4198550;28;20078;-43
2021/12/11 01:02:22;;;;;;;1.17;0.60;;;;;;;;;;4198129;28;20063;-42
2021/12/11 01:04:25;;;;;;;0.43;0.30;;;;;;;;;;4198274;28;20056;-41
2021/12/11 01:06:26;;;;;;;0.45;0.30;;;;;;;;;;4198177;28;20044;-42
2021/12/11 01:08:34;;;;;;;0.60;0.43;;;;;;;;;;4197735;28;20095;-40
2021/12/11 01:10:35;;;;;;;0.40;0.38;;;;;;;;;;4198487;28;20048;-40
2021/12/11 01:12:47;;;;;;;0.40;0.40;;;;;;;;;;4197936;28;20059;-42
2021/12/11 01:14:53;;;;;;;0.50;0.50;;;;;;;;;;4198141;28;20056;-39
2021/12/11 01:17:07;;;;;;;0.40;0.32;;;;;;;;;;4197866;28;20502;-39
2021/12/11 01:19:17;;;;;;;0.43;0.35;;;;;;;;;;4198222;28;20060;-42
2021/12/11 01:21:41;;;;;;;0.50;0.50;;;;;;;;;;4197970;28;20061;-40
2021/12/11 01:25:45;;;;;;;0.50;0.50;;;;;;;;;;4197660;28;20121;-38
2021/12/11 01:27:48;;;;;;;0.40;0.40;;;;;;;;;;4197710;28;20076;-42
2021/12/11 01:29:50;;;;;;;0.75;0.40;;;;;;;;;;4197825;28;20444;-42
2021/12/11 01:31:52;;;;;;;0.80;0.55;;;;;;;;;;4197581;28;20049;-40
2021/12/11 01:33:54;;;;;;;0.85;0.40;;;;;;;;;;4197768;28;20048;-41
2021/12/11 01:35:55;;;;;;;0.50;0.40;;;;;;;;;;4197704;28;20465;-39
2021/12/11 01:38:22;;;;;;;0.35;0.30;;;;;;;;;;4197415;28;20052;-40
2021/12/11 01:40:23;;;;;;;0.63;0.50;;;;;;;;;;4194817;28;20060;-42
2021/12/11 01:42:26;;;;;;;0.43;0.43;;;;;;;;;;4197531;28;20048;-39
2021/12/11 01:44:32;;;;;;;0.30;0.30;;;;;;;;;;4197764;28;20053;-42
2021/12/11 01:46:33;;;;;;;0.47;0.47;;;;;;;;;;4197473;28;20061;-42
2021/12/11 01:48:36;;;;;;;0.30;0.30;;;;;;;;;;4197393;28;20044;-42
2021/12/11 01:50:39;;;;;;;0.60;0.52;;;;;;;;;;4197490;28;20529;-42
2021/12/11 01:52:54;;;;;;;0.43;0.40;;;;;;;;;;4196887;28;20052;-42
2021/12/11 01:54:56;;;;;;;0.43;0.43;;;;;;;;;;4197702;28;20040;-42
2021/12/11 01:57:00;;;;;;;0.30;0.22;;;;;;;;;;4195963;28;20075;-41
2021/12/11 01:59:04;;;;;;;0.85;0.50;;;;;;;;;;4197707;28;20354;-40
2021/12/11 02:01:09;;;;;;;0.40;0.40;;;;;;;;;;4197408;28;20469;-40
2021/12/11 02:03:13;;;;;;;0.40;0.40;;;;;;;;;;4197434;28;20092;-41
2021/12/11 02:05:19;;;;;;;0.50;0.30;;;;;;;;;;4197672;28;20098;-41
2021/12/11 02:07:25;;;;;;;0.40;0.40;;;;;;;;;;4196974;28;20100;-40
2021/12/11 02:09:29;;;;;;;0.30;0.30;;;;;;;;;;4197278;28;20105;-42
2021/12/11 02:11:30;;;;;;;0.30;0.30;;;;;;;;;;4197513;28;20056;-42
2021/12/11 02:13:41;;;;;;;0.60;0.50;;;;;;;;;;4197204;28;20472;-41
2021/12/11 02:15:48;;;;;;;0.85;0.50;;;;;;;;;;4197503;28;20057;-41
2021/12/11 02:17:52;;;;;;;0.65;0.57;;;;;;;;;;4197218;28;20099;-42
2021/12/11 02:19:54;;;;;;;0.43;0.40;;;;;;;;;;4197445;28;20052;-41
2021/12/11 02:21:56;;;;;;;0.32;0.30;;;;;;;;;;4196436;28;20060;-41
2021/12/11 02:24:04;;;;;;;0.60;0.50;;;;;;;;;;4197397;28;20106;-41
2021/12/11 02:26:11;;;;;;;0.47;0.38;;;;;;;;;;4197147;28;20041;-42
2021/12/11 02:28:16;;;;;;;0.57;0.40;;;;;;;;;;4197223;28;20079;-41
2021/12/11 02:30:21;;;;;;;0.70;0.40;;;;;;;;;;4197121;28;20114;-42
2021/12/11 02:32:29;;;;;;;0.40;0.32;;;;;;;;;;4197129;28;20098;-42
2021/12/11 02:34:34;;;;;;;0.43;0.43;;;;;;;;;;4197180;28;20049;-41
2021/12/11 02:36:45;;;;;;;0.68;0.43;;;;;;;;;;4197159;28;20114;-41
2021/12/11 02:38:52;;;;;;;0.45;0.43;;;;;;;;;;4197152;28;20052;-41
2021/12/11 02:40:53;;;;;;;0.65;0.50;;;;;;;;;;4196125;28;20057;-42
2021/12/11 02:42:56;;;;;;;0.40;0.40;;;;;;;;;;4196757;28;20186;-41
2021/12/11 02:45:03;;;;;;;0.40;0.30;;;;;;;;;;4196997;28;20048;-42
2021/12/11 02:47:15;;;;;;;0.40;0.30;;;;;;;;;;4195073;28;20520;-43
2021/12/11 02:49:22;;;;;;;0.40;0.40;;;;;;;;;;4197265;28;20052;-41
2021/12/11 02:51:30;;;;;;;0.63;0.40;;;;;;;;;;4196914;28;20048;-41
2021/12/11 02:53:34;;;;;;;0.98;0.40;;;;;;;;;;4196716;28;20041;-41
2021/12/11 02:55:38;;;;;;;0.55;0.40;;;;;;;;;;4195531;28;20071;-41
2021/12/11 02:57:41;;;;;;;0.30;0.30;;;;;;;;;;4196619;28;20094;-41
2021/12/11 02:59:44;;;;;;;0.43;0.35;;;;;;;;;;4196709;28;20338;-42
2021/12/11 03:01:50;;;;;;;0.43;0.40;;;;;;;;;;4196658;28;20421;-43
2021/12/11 03:03:59;;;;;;;0.40;0.40;;;;;;;;;;4195490;28;20049;-40
2021/12/11 03:06:09;;;;;;;0.30;0.30;;;;;;;;;;4196693;28;20049;-43
2021/12/11 03:08:12;;;;;;;0.40;0.40;;;;;;;;;;4196355;28;20385;-41
2021/12/11 03:10:14;;;;;;;0.40;0.40;;;;;;;;;;4195019;28;20044;-43
2021/12/11 03:12:16;;;;;;;0.50;0.40;;;;;;;;;;4180022;28;20107;-42
2021/12/11 03:14:18;;;;;;;0.40;0.40;;;;;;;;;;4180195;28;20052;-43
2021/12/11 03:16:20;;;;;;;0.47;0.38;;;;;;;;;;4180346;28;20057;-42
2021/12/11 03:18:22;;;;;;;0.75;0.57;;;;;;;;;;4180216;28;20049;-42
2021/12/11 03:20:24;;;;;;;0.60;0.47;;;;;;;;;;4178823;28;20057;-42
2021/12/11 03:22:30;;;;;;;0.50;0.50;;;;;;;;;;4179412;28;20061;-41
2021/12/11 03:24:33;;;;;;;0.40;0.40;;;;;;;;;;4179022;28;20083;-40
2021/12/11 03:26:35;;;;;;;0.45;0.30;;;;;;;;;;4179805;28;20106;-42
2021/12/11 03:28:36;;;;;;;0.40;0.40;;;;;;;;;;4179994;28;20500;-41
2021/12/11 03:30:40;;;;;;;0.50;0.50;;;;;;;;;;4180031;28;20057;-41
2021/12/11 03:32:41;;;;;;;0.30;0.30;;;;;;;;;;4179925;28;20055;-42
2021/12/11 03:34:44;;;;;;;0.70;0.50;;;;;;;;;;4179984;28;20389;-39
2021/12/11 03:36:45;;;;;;;0.50;0.40;;;;;;;;;;4179396;28;20053;-42
2021/12/11 03:38:49;;;;;;;0.40;0.40;;;;;;;;;;4179869;28;20057;-40
2021/12/11 03:40:50;;;;;;;0.43;0.35;;;;;;;;;;4179729;28;20053;-40
2021/12/11 03:42:52;;;;;;;0.52;0.50;;;;;;;;;;4179734;28;20053;-40
2021/12/11 03:44:53;;;;;;;0.43;0.40;;;;;;;;;;4179828;28;20061;-41
2021/12/11 03:46:54;;;;;;;0.32;0.30;;;;;;;;;;4179734;28;20401;-42
2021/12/11 03:48:57;;;;;;;0.45;0.30;;;;;;;;;;4179800;28;20049;-40
2021/12/11 03:50:58;;;;;;;0.45;0.40;;;;;;;;;;4179876;28;20049;-41
2021/12/11 03:53:00;;;;;;;0.65;0.43;;;;;;;;;;4179573;28;20053;-41
2021/12/11 03:55:01;;;;;;;0.45;0.40;;;;;;;;;;4179793;28;20045;-42
2021/12/11 03:57:02;;;;;;;0.70;0.40;;;;;;;;;;4179574;28;20154;-42
2021/12/11 03:59:09;;;;;;;0.65;0.60;;;;;;;;;;4180899;28;20063;-40
2021/12/11 04:01:14;;;;;;;0.30;0.30;;;;;;;;;;4182696;28;20094;-41
2021/12/11 04:03:16;;;;;;;0.30;0.30;;;;;;;;;;4182607;28;20053;-42
2021/12/11 04:05:17;;;;;;;0.60;0.50;;;;;;;;;;4182698;28;20049;-40
2021/12/11 04:07:20;;;;;;;0.38;0.38;;;;;;;;;;4182054;28;20431;-41
2021/12/11 04:09:21;;;;;;;0.32;0.32;;;;;;;;;;4182627;28;20049;-41
2021/12/11 04:11:25;;;;;;;0.77;0.38;;;;;;;;;;4182771;28;20106;-41
2021/12/11 04:13:26;;;;;;;0.70;0.40;;;;;;;;;;4182406;28;20048;-41
2021/12/11 04:15:27;;;;;;;0.35;0.35;;;;;;;;;;4182468;28;20091;-42
2021/12/11 04:17:29;;;;;;;0.50;0.50;;;;;;;;;;4182240;28;20053;-43
2021/12/11 04:19:30;;;;;;;0.35;0.35;;;;;;;;;;4182686;28;20049;-41
2021/12/11 04:21:32;;;;;;;0.43;0.40;;;;;;;;;;4182134;28;20106;-42
2021/12/11 04:23:33;;;;;;;0.50;0.40;;;;;;;;;;4181847;28;20057;-40
2021/12/11 04:25:34;;;;;;;0.47;0.40;;;;;;;;;;4182419;28;20057;-39
2021/12/11 04:27:35;;;;;;;0.52;0.40;;;;;;;;;;4182409;28;20174;-42
2021/12/11 04:29:36;;;;;;;0.40;0.30;;;;;;;;;;4182430;28;20049;-39
2021/12/11 04:31:41;;;;;;;0.40;0.30;;;;;;;;;;4189129;28;20048;-41
2021/12/11 04:33:45;;;;;;;0.30;0.30;;;;;;;;;;4198869;28;20392;-43
2021/12/11 04:35:46;;;;;;;0.30;0.30;;;;;;;;;;4198767;28;20049;-40
2021/12/11 04:37:48;;;;;;;0.35;0.30;;;;;;;;;;4198485;28;20070;-42
2021/12/11 04:39:56;;;;;;;0.30;0.30;;;;;;;;;;4198574;28;20057;-40
2021/12/11 04:42:03;;;;;;;0.52;0.40;;;;;;;;;;4198593;28;20063;-41
2021/12/11 04:44:06;;;;;;;0.40;0.35;;;;;;;;;;4198664;28;20049;-43
2021/12/11 04:46:09;;;;;;;0.52;0.40;;;;;;;;;;4198514;28;20049;-40
2021/12/11 04:48:24;;;;;;;0.32;0.30;;;;;;;;;;4198455;28;20438;-42
2021/12/11 04:50:35;;;;;;;0.40;0.32;;;;;;;;;;4198584;28;20041;-39
2021/12/11 04:52:55;;;;;;;0.68;0.52;;;;;;;;;;4198069;28;20369;-41
2021/12/11 04:55:14;;;;;;;;;;;;;;;;;;4198946;28;20059;-41
2021/12/11 04:57:52;;;;;;;0.43;0.30;;;;;;;;;;4198390;28;19916;-42
2021/12/11 05:06:43;;;;;;;0.60;0.30;;;;;;;;;;4198173;28;20468;-43
2021/12/11 05:11:05;;;;;;;0.40;0.40;;;;;;;;;;4196547;28;20048;-40
2021/12/11 05:13:06;;;;;;;0.60;0.30;;;;;;;;;;4198159;28;20373;-39
2021/12/11 05:15:11;;;;;;;0.28;0.28;;;;;;;;;;4198191;28;20381;-42
2021/12/11 05:17:13;;;;;;;0.68;0.50;;;;;;;;;;4198316;28;20057;-42
2021/12/11 05:19:14;;;;;;;0.32;0.30;;;;;;;;;;4198246;28;20048;-40
2021/12/11 05:21:18;;;;;;;0.55;0.40;;;;;;;;;;4197932;28;20496;-41
2021/12/11 05:23:19;;;;;;;0.35;0.35;;;;;;;;;;4197384;28;20056;-41
2021/12/11 05:25:20;;;;;;;0.40;0.30;;;;;;;;;;4197933;28;20454;-38
2021/12/11 05:27:22;;;;;;;0.30;0.30;;;;;;;;;;4197752;28;20052;-37
2021/12/11 05:29:23;;;;;;;0.28;0.28;;;;;;;;;;4198164;28;20056;-41
2021/12/11 05:31:24;;;;;;;0.28;0.20;;;;;;;;;;4197895;28;20127;-42
2021/12/11 05:33:25;;;;;;;0.45;0.40;;;;;;;;;;4197716;28;20049;-38
2021/12/11 05:35:27;;;;;;;0.43;0.40;;;;;;;;;;4197814;28;20052;-41
2021/12/11 05:37:30;;;;;;;0.20;0.20;;;;;;;;;;4197068;28;20436;-40
2021/12/11 05:39:31;;;;;;;0.30;0.30;;;;;;;;;;4197830;28;20101;-41
2021/12/11 05:41:32;;;;;;;0.40;0.40;;;;;;;;;;4197928;28;20132;-41
2021/12/11 05:43:33;;;;;;;0.40;0.30;;;;;;;;;;4197662;28;20178;-43
2021/12/11 05:45:34;;;;;;;0.50;0.40;;;;;;;;;;4196362;28;20056;-43
2021/12/11 05:47:36;;;;;;;0.35;0.32;;;;;;;;;;4197414;28;20052;-41
2021/12/11 05:49:38;;;;;;;0.30;0.30;;;;;;;;;;4197600;28;20052;-39
2021/12/11 05:51:40;;;;;;;0.32;0.32;;;;;;;;;;4197149;28;20049;-42
2021/12/11 05:53:41;;;;;;;0.35;0.30;;;;;;;;;;4197383;28;20057;-41
2021/12/11 05:55:42;;;;;;;0.55;0.40;;;;;;;;;;4197537;28;20040;-42
2021/12/11 05:57:50;;;;;;;0.60;0.40;;;;;;;;;;4197547;28;20113;-42
2021/12/11 05:59:52;;;;;;;0.40;0.30;;;;;;;;;;4197765;28;20102;-40
2021/12/11 06:01:59;;;;;;;0.90;0.70;;;;;;;;;;4197478;28;20533;-41
2021/12/11 06:04:02;;;;;;;0.93;0.50;;;;;;;;;;4196249;28;20044;-38
2021/12/11 06:06:04;;;;;;;0.50;0.32;;;;;;;;;;4197227;28;20108;-39
2021/12/11 06:08:06;;;;;;;0.30;0.30;;;;;;;;;;4197156;28;20048;-42
2021/12/11 06:10:10;;;;;;;0.30;0.30;;;;;;;;;;4197336;28;20480;-40
2021/12/11 06:12:12;;;;;;;0.30;0.30;;;;;;;;;;4197203;28;20125;-41
2021/12/11 06:14:16;;;;;;;0.43;0.43;;;;;;;;;;4195957;28;20048;-41
2021/12/11 06:16:18;;;;;;;0.38;0.30;;;;;;;;;;4197245;28;20048;-41
2021/12/11 06:18:19;;;;;;;0.28;0.28;;;;;;;;;;4197339;28;20111;-39
2021/12/11 06:20:23;;;;;;;0.30;0.30;;;;;;;;;;4197432;28;20052;-42
2021/12/11 06:22:26;;;;;;;0.32;0.30;;;;;;;;;;4195761;28;20471;-41
2021/12/11 06:24:27;;;;;;;0.40;0.38;;;;;;;;;;4197088;28;20048;-40
2021/12/11 06:26:29;;;;;;;0.68;0.50;;;;;;;;;;4197007;28;20052;-40
2021/12/11 06:28:30;;;;;;;0.30;0.30;;;;;;;;;;4196966;28;20052;-42
2021/12/11 06:30:31;;;;;;;0.43;0.30;;;;;;;;;;4197133;28;20365;-41
2021/12/11 06:32:32;;;;;;;0.40;0.40;;;;;;;;;;4196890;28;20048;-40
2021/12/11 06:34:34;;;;;;;0.52;0.30;;;;;;;;;;4197209;28;20101;-42
2021/12/11 06:36:35;;;;;;;0.30;0.30;;;;;;;;;;4197242;28;20056;-42
2021/12/11 06:38:37;;;;;;;0.32;0.30;;;;;;;;;;4196496;28;20052;-41
2021/12/11 06:40:37;;;;;;;0.40;0.28;;;;;;;;;;4196993;28;20484;-42
2021/12/11 06:42:38;;;;;;;0.20;0.20;;;;;;;;;;4196826;28;20145;-41
2021/12/11 06:44:39;;;;;;;0.40;0.40;;;;;;;;;;4196986;28;20052;-41
2021/12/11 06:46:41;;;;;;;0.30;0.30;;;;;;;;;;4196701;28;20052;-42
2021/12/11 06:48:43;;;;;;;0.40;0.30;;;;;;;;;;4195816;28;20056;-42
2021/12/11 06:50:45;;;;;;;0.28;0.28;;;;;;;;;;4196849;28;20052;-41
2021/12/11 06:52:47;;;;;;;0.50;0.35;;;;;;;;;;4196341;28;20052;-39
2021/12/11 06:54:48;;;;;;;0.38;0.38;;;;;;;;;;4196904;28;20094;-41
2021/12/11 06:56:49;;;;;;;0.38;0.30;;;;;;;;;;4196875;28;20502;-40
2021/12/11 06:58:52;;;;;;;0.30;0.30;;;;;;;;;;4196874;28;20060;-42
2021/12/11 07:00:54;;;;;;;0.45;0.30;;;;;;;;;;4195843;28;20083;-43
2021/12/11 07:02:55;;;;;;;0.68;0.30;;;;;;;;;;4196624;28;20488;-42
2021/12/11 07:04:55;;;;;;;0.30;0.30;;;;;;;;;;4196665;28;20129;-42
2021/12/11 07:06:56;;;;;;;0.20;0.20;;;;;;;;;;4196051;28;20048;-42
2021/12/11 07:08:59;;;;;;;0.50;0.40;;;;;;;;;;4197105;28;20188;-43
2021/12/11 07:11:00;;;;;;;0.32;0.30;;;;;;;;;;4196718;28;20049;-42
2021/12/11 07:13:01;;;;;;;0.47;0.30;;;;;;;;;;4196568;28;20095;-40
2021/12/11 07:15:04;;;;;;;0.57;0.30;;;;;;;;;;4196990;28;20048;-41
2021/12/11 07:17:05;;;;;;;0.40;0.30;;;;;;;;;;4196590;28;20052;-41
2021/12/11 07:19:07;;;;;;;0.50;0.40;;;;;;;;;;4196592;28;20456;-41
2021/12/11 07:21:08;;;;;;;0.20;0.20;;;;;;;;;;4196502;28;20053;-40
2021/12/11 07:23:09;;;;;;;0.20;0.20;;;;;;;;;;4196178;28;20049;-41
2021/12/11 07:25:16;;;;;;;0.40;0.28;;;;;;;;;;4196839;28;20056;-40
2021/12/11 07:27:18;;;;;;;0.20;0.20;;;;;;;;;;4196520;28;20052;-42
2021/12/11 07:29:19;;;;;;;0.20;0.20;;;;;;;;;;4196660;28;20488;-43
2021/12/11 07:31:21;;;;;;;0.32;0.32;;;;;;;;;;4196737;28;20056;-41
2021/12/11 07:33:23;;;;;;;0.50;0.40;;;;;;;;;;4198219;28;20094;-41
2021/12/11 07:35:24;;;;;;;0.30;0.30;;;;;;;;;;4199702;28;20376;-39
2021/12/11 07:37:25;;;;;;;0.20;0.20;;;;;;;;;;4199170;28;20097;-42
2021/12/11 07:39:26;;;;;;;0.20;0.20;;;;;;;;;;4199607;28;20052;-43
2021/12/11 07:41:27;;;;;;;0.30;0.30;;;;;;;;;;4199793;28;20471;-42
2021/12/11 07:43:29;;;;;;;0.20;0.20;;;;;;;;;;4199481;28;20056;-41
2021/12/11 07:45:31;;;;;;;0.22;0.20;;;;;;;;;;4199521;28;20056;-41
2021/12/11 07:47:32;;;;;;;0.38;0.38;;;;;;;;;;4199399;28;20052;-41
2021/12/11 07:49:33;;;;;;;0.20;0.20;;;;;;;;;;4199466;28;20056;-41
2021/12/11 07:51:35;;;;;;;0.20;0.20;;;;;;;;;;4199724;28;20049;-43
2021/12/11 07:53:36;;;;;;;0.20;0.20;;;;;;;;;;4199024;28;20102;-41
2021/12/11 07:55:38;;;;;;;0.20;0.20;;;;;;;;;;4199413;28;20095;-41
2021/12/11 07:57:38;;;;;;;0.30;0.30;;;;;;;;;;4199471;28;20110;-42
2021/12/11 07:59:40;;;;;;;0.38;0.38;;;;;;;;;;4199404;28;20052;-41
2021/12/11 08:01:43;;;;;;;0.45;0.35;;;;;;;;;;4197712;28;20514;-41
2021/12/11 08:03:44;;;;;;;0.52;0.25;;;;;;;;;;4199205;28;20056;-39
2021/12/11 08:05:46;;;;;;;0.20;0.20;;;;;;;;;;4199479;28;20052;-39
2021/12/11 08:07:47;;;;;;;0.38;0.30;;;;;;;;;;4198618;28;20440;-41
2021/12/11 08:09:48;;;;;;;0.38;0.22;;;;;;;;;;4199320;28;20091;-40
2021/12/11 08:11:49;;;;;;;0.20;0.20;;;;;;;;;;4199310;28;20079;-39
2021/12/11 08:13:50;;;;;;;0.28;0.28;;;;;;;;;;4199112;28;20121;-37
2021/12/11 08:15:54;;;;;;;0.32;0.30;;;;;;;;;;4199105;28;20381;-40
2021/12/11 08:17:57;;;;;;;0.20;0.20;;;;;;;;;;4198894;28;20048;-42
2021/12/11 08:19:58;;;;;;;0.20;0.20;;;;;;;;;;4199028;28;20055;-42
2021/12/11 08:22:01;;;;;;;0.25;0.25;;;;;;;;;;4198315;28;20060;-39
2021/12/11 08:24:05;;;;;;;0.30;0.30;;;;;;;;;;4198939;28;20484;-43
2021/12/11 08:26:06;;;;;;;0.40;0.30;;;;;;;;;;4197861;28;20048;-42
2021/12/11 08:28:08;;;;;;;0.43;0.25;;;;;;;;;;4198660;28;20102;-41
2021/12/11 08:30:10;;;;;;;0.28;0.20;;;;;;;;;;4198811;28;20049;-41
2021/12/11 08:32:11;;;;;;;0.38;0.30;;;;;;;;;;4198655;28;20045;-42
2021/12/11 08:34:13;;;;;;;0.30;0.30;;;;;;;;;;4198831;28;20049;-41
2021/12/11 08:36:14;;;;;;;0.40;0.28;;;;;;;;;;4198843;28;20484;-41
2021/12/11 08:38:17;;;;;;;0.22;0.15;;;;;;;;;;4198165;28;20052;-40
2021/12/11 08:40:20;;;;;;;0.10;0.10;;;;;;;;;;4198751;28;20052;-41
2021/12/11 08:42:25;;;;;;;0.20;0.20;;;;;;;;;;4198619;28;20052;-41
2021/12/11 08:44:27;;;;;;;0.30;0.30;;;;;;;;;;4197879;28;20052;-40
2021/12/11 08:46:30;;;;;;;0.32;0.20;;;;;;;;;;4198728;28;20114;-42
2021/12/11 08:48:31;;;;;;;0.20;0.20;;;;;;;;;;4198450;28;20052;-42
2021/12/11 08:50:32;;;;;;;0.20;0.20;;;;;;;;;;4198636;28;20053;-41
2021/12/11 08:52:37;;;;;;;0.30;0.30;;;;;;;;;;4196593;28;20551;-41
2021/12/11 08:54:39;;;;;;;0.38;0.20;;;;;;;;;;4198701;28;20381;-42
2021/12/11 08:56:41;;;;;;;0.40;0.35;;;;;;;;;;4198608;28;20098;-41
2021/12/11 08:58:42;;;;;;;0.20;0.20;;;;;;;;;;4198684;28;20048;-40
2021/12/11 09:01:02;;;;;;;0.30;0.30;;;;;;;;;;4198322;28;20052;-43
2021/12/11 09:03:07;;;;;;;0.60;0.40;;;;;;;;;;4198341;28;20056;-40
2021/12/11 09:05:11;;;;;;;0.20;0.20;;;;;;;;;;4197222;28;20048;-42
2021/12/11 09:07:20;;;;;;;0.20;0.20;;;;;;;;;;4197709;28;20053;-39
2021/12/11 09:09:25;;;;;;;0.52;0.20;;;;;;;;;;4198320;28;20055;-38
2021/12/11 09:11:35;;;;;;;0.38;0.30;;;;;;;;;;4198170;28;20421;-42
2021/12/11 09:13:47;;;;;;;0.13;0.13;;;;;;;;;;4198217;28;20539;-38
2021/12/11 09:15:55;;;;;;;0.20;0.20;;;;;;;;;;4198168;28;20428;-42
2021/12/11 09:18:02;;;;;;;0.15;0.15;;;;;;;;;;4198086;28;20048;-41
2021/12/11 09:20:22;;;;;;;0.30;0.20;;;;;;;;;;4196931;28;20060;-40
2021/12/11 09:22:23;;;;;;;;;;;;;;;;;;4197167;28;20064;-43
2021/12/11 09:24:26;;;;;;;0.17;0.17;;;;;;;;;;4197997;28;20011;-42
2021/12/11 09:26:30;;;;;;;0.20;0.20;;;;;;;;;;4197873;28;20048;-42
2021/12/11 09:28:40;;;;;;;0.20;0.20;;;;;;;;;;4196818;28;20041;-42
2021/12/11 09:30:57;;;;;;;0.20;0.20;;;;;;;;;;4198005;28;20052;-42
2021/12/11 09:33:01;;;;;;;0.30;0.25;;;;;;;;;;4197802;28;20044;-42
2021/12/11 09:35:07;;;;;;;0.30;0.20;;;;;;;;;;4196505;28;20409;-41
2021/12/11 09:37:09;;;;;;;0.20;0.20;;;;;;;;;;4197156;28;20052;-41
2021/12/11 09:39:31;;;;;;;0.25;0.20;;;;;;;;;;4197631;28;20488;-42
2021/12/11 09:41:33;;;;;;;0.40;0.40;;;;;;;;;;4197662;28;20550;-38
2021/12/11 09:43:54;;;;;;;0.20;0.20;;;;;;;;;;4197637;28;20048;-41
2021/12/11 09:45:56;;;;;;;0.75;0.30;;;;;;;;;;4187138;28;20052;-42
2021/12/11 09:48:00;;;;;;;0.10;0.10;;;;;;;;;;4197494;28;20558;-40
2021/12/11 09:50:08;;;;;;;0.30;0.20;;;;;;;;;;4197539;28;20060;-42
2021/12/11 09:52:18;;;;;;;0.20;0.20;;;;;;;;;;4197031;28;20048;-40
2021/12/11 09:54:21;;;;;;;0.20;0.20;;;;;;;;;;4197868;28;20048;-40
2021/12/11 09:56:25;;;;;;;0.30;0.30;;;;;;;;;;4197689;28;20117;-44
2021/12/11 09:58:28;;;;;;;0.57;0.40;;;;;;;;;;4197279;28;20048;-40
2021/12/11 10:00:43;;;;;;;0.40;0.28;;;;;;;;;;4197764;28;20056;-41
2021/12/11 10:02:45;;;;;;;0.40;0.30;;;;;;;;;;4197248;28;20052;-42
2021/12/11 10:05:17;;;;;;;0.20;0.20;;;;;;;;;;4196070;28;20090;-41
2021/12/11 10:07:33;;;;;;;0.20;0.20;;;;;;;;;;4191141;28;20056;-43
2021/12/11 10:09:36;;;;;;;0.30;0.20;;;;;;;;;;4197275;28;20382;-40
2021/12/11 10:11:37;;;;;;;0.40;0.40;;;;;;;;;;4197122;28;20369;-41
2021/12/11 10:13:58;;;;;;;0.22;0.22;;;;;;;;;;4197113;28;20048;-42
2021/12/11 10:15:59;;;;;;;0.20;0.20;;;;;;;;;;4196872;28;20511;-41
2021/12/11 10:18:06;;;;;;;0.40;0.20;;;;;;;;;;4197025;28;20049;-41
2021/12/11 10:20:10;;;;;;;0.10;0.10;;;;;;;;;;4197510;28;20048;-42
2021/12/11 10:22:14;;;;;;;0.10;0.10;;;;;;;;;;4196366;28;20056;-43
2021/12/11 10:24:19;;;;;;;0.17;0.17;;;;;;;;;;4195970;28;20055;-44
2021/12/11 10:26:22;;;;;;;0.17;0.17;;;;;;;;;;4196989;28;20056;-41
2021/12/11 10:28:27;;;;;;;0.20;0.20;;;;;;;;;;4196919;28;20480;-42
2021/12/11 10:30:31;;;;;;;0.15;0.15;;;;;;;;;;4196915;28;20481;-40
2021/12/11 10:32:32;;;;;;;0.30;0.30;;;;;;;;;;4196968;28;20056;-42
2021/12/11 10:34:34;;;;;;;0.20;0.20;;;;;;;;;;4197151;28;20048;-42
2021/12/11 10:36:37;;;;;;;0.20;0.20;;;;;;;;;;4196999;28;20056;-39
2021/12/11 10:38:38;;;;;;;0.13;0.13;;;;;;;;;;4196756;28;20059;-41
2021/12/11 10:40:45;;;;;;;0.20;0.20;;;;;;;;;;4196984;28;20102;-39
2021/12/11 10:42:50;;;;;;;0.10;0.10;;;;;;;;;;4196748;28;20381;-41
2021/12/11 10:44:52;;;;;;;0.28;0.28;;;;;;;;;;4196938;28;20488;-42
2021/12/11 10:46:58;;;;;;;0.38;0.30;;;;;;;;;;4196706;28;20378;-41
2021/12/11 10:49:00;;;;;;;0.10;0.10;;;;;;;;;;4196812;28;20057;-41
2021/12/11 10:51:07;;;;;;;0.20;0.10;;;;;;;;;;4196815;28;20377;-40
2021/12/11 10:53:11;;;;;;;0.55;0.20;;;;;;;;;;4196706;28;20048;-40
2021/12/11 10:55:14;;;;;;;0.38;0.30;;;;;;;;;;4196892;28;20048;-41
2021/12/11 10:57:16;;;;;;;0.15;0.10;;;;;;;;;;4196622;28;20109;-43
2021/12/11 10:59:28;;;;;;;0.25;0.20;;;;;;;;;;4196808;28;20385;-41
2021/12/11 11:01:34;;;;;;;0.28;0.28;;;;;;;;;;4197093;28;20074;-41
2021/12/11 11:03:37;;;;;;;0.20;0.20;;;;;;;;;;4196944;28;20086;-41
2021/12/11 11:05:38;;;;;;;0.20;0.20;;;;;;;;;;4196993;28;20049;-41
2021/12/11 11:07:40;;;;;;;0.20;0.20;;;;;;;;;;4196700;28;20052;-42
2021/12/11 11:09:42;;;;;;;0.57;0.20;;;;;;;;;;4200144;28;20052;-39
2021/12/11 11:11:45;;;;;;;0.10;0.10;;;;;;;;;;4199820;28;20546;-42
2021/12/11 11:13:47;;;;;;;0.20;0.20;;;;;;;;;;4199968;28;20049;-41
2021/12/11 11:15:48;;;;;;;0.25;0.25;;;;;;;;;;4200415;28;20045;-39
2021/12/11 11:17:50;;;;;;;0.20;0.20;;;;;;;;;;4199952;28;20052;-41
2021/12/11 11:19:51;;;;;;;0.10;0.10;;;;;;;;;;4200044;28;20436;-38
2021/12/11 11:21:57;;;;;;;0.30;0.30;;;;;;;;;;4197885;28;20060;-42
2021/12/11 11:23:59;;;;;;;0.20;0.20;;;;;;;;;;4200311;28;20048;-41
2021/12/11 11:26:03;;;;;;;0.20;0.10;;;;;;;;;;4198544;28;20416;-40
2021/12/11 11:28:09;;;;;;;0.10;0.10;;;;;;;;;;4199631;28;20438;-42
2021/12/11 11:30:14;;;;;;;0.20;0.20;;;;;;;;;;4200051;28;20053;-40
2021/12/11 11:32:17;;;;;;;0.45;0.20;;;;;;;;;;4199612;28;20055;-39
2021/12/11 11:34:20;;;;;;;0.30;0.30;;;;;;;;;;4199687;28;20044;-39
2021/12/11 11:36:23;;;;;;;0.20;0.20;;;;;;;;;;4199935;28;20060;-41
2021/12/11 11:38:26;;;;;;;0.20;0.20;;;;;;;;;;4199043;28;20045;-42
2021/12/11 11:40:30;;;;;;;0.10;0.10;;;;;;;;;;4199618;28;20053;-42
2021/12/11 11:42:32;;;;;;;0.35;0.35;;;;;;;;;;4199482;28;20409;-42
2021/12/11 11:44:33;;;;;;;0.10;0.10;;;;;;;;;;4199497;28;20056;-41
2021/12/11 11:46:35;;;;;;;0.35;0.30;;;;;;;;;;4199411;28;20098;-42
2021/12/11 11:48:39;;;;;;;0.22;0.17;;;;;;;;;;4199387;28;20382;-42
2021/12/11 11:50:42;;;;;;;0.10;0.10;;;;;;;;;;4199547;28;20056;-41
2021/12/11 11:52:43;;;;;;;0.20;0.20;;;;;;;;;;4198965;28;20044;-38
2021/12/11 11:54:47;;;;;;;0.30;0.10;;;;;;;;;;4199582;28;20090;-41
2021/12/11 11:56:52;;;;;;;0.30;0.20;;;;;;;;;;4199258;28;20060;-41
2021/12/11 11:58:53;;;;;;;0.25;0.22;;;;;;;;;;4199816;28;20143;-41
2021/12/11 12:00:57;;;;;;;0.10;0.10;;;;;;;;;;4199267;28;20056;-42
2021/12/11 12:02:58;;;;;;;0.25;0.20;;;;;;;;;;4199061;28;20386;-42
2021/12/11 12:05:01;;;;;;;0.20;0.20;;;;;;;;;;4199207;28;20381;-41
2021/12/11 12:07:03;;;;;;;0.38;0.20;;;;;;;;;;4198577;28;20048;-41
2021/12/11 12:09:06;;;;;;;0.20;0.13;;;;;;;;;;4199068;28;20053;-40
2021/12/11 12:11:07;;;;;;;0.20;0.20;;;;;;;;;;4199103;28;20072;-41
2021/12/11 12:13:09;;;;;;;0.13;0.13;;;;;;;;;;4199168;28;20057;-40
2021/12/11 12:15:12;;;;;;;0.13;0.10;;;;;;;;;;4199318;28;20052;-42
2021/12/11 12:17:14;;;;;;;0.10;0.10;;;;;;;;;;4198963;28;20492;-38
2021/12/11 12:19:16;;;;;;;0.32;0.20;;;;;;;;;;4198207;28;20053;-42
2021/12/11 12:21:17;;;;;;;0.20;0.20;;;;;;;;;;4198950;28;20048;-41
2021/12/11 12:23:19;;;;;;;0.20;0.20;;;;;;;;;;4198610;28;20060;-42
2021/12/11 12:25:21;;;;;;;0.13;0.13;;;;;;;;;;4198915;28;20056;-41
2021/12/11 12:27:24;;;;;;;0.10;0.10;;;;;;;;;;4198728;28;20485;-42
2021/12/11 12:29:26;;;;;;;0.15;0.15;;;;;;;;;;4199135;28;20040;-42
2021/12/11 12:31:30;;;;;;;0.70;0.20;;;;;;;;;;4198802;28;20048;-41
2021/12/11 12:33:32;;;;;;;0.20;0.10;;;;;;;;;;4198722;28;20049;-40
2021/12/11 12:35:33;;;;;;;0.25;0.25;;;;;;;;;;4199044;28;20052;-42